sensor_id;sensor_type;location;lat;lon;timestamp;pressure;altitude;pressure_sealevel;temperature
71205;BMP180;58935;54.498;18.544;2023-08-17T00:01:23;101255.80;;;18.10
71205;BMP180;58935;54.498;18.544;2023-08-17T00:03:48;101263.80;;;18.10
71205;BMP180;58935;54.498;18.544;2023-08-17T00:06:14;101274.00;;;18.10
71205;BMP180;58935;54.498;18.544;2023-08-17T00:08:39;101267.80;;;18.00
71205;BMP180;58935;54.498;18.544;2023-08-17T00:11:04;101255.20;;;18.00
71205;BMP180;58935;54.498;18.544;2023-08-17T00:13:29;101250.40;;;17.90
71205;BMP180;58935;54.498;18.544;2023-08-17T00:15:55;101244.20;;;17.90
71205;BMP180;58935;54.498;18.544;2023-08-17T00:18:20;101252.60;;;17.88
71205;BMP180;58935;54.498;18.544;2023-08-17T00:20:45;101249.00;;;17.80
71205;BMP180;58935;54.498;18.544;2023-08-17T00:23:11;101253.40;;;17.80
71205;BMP180;58935;54.498;18.544;2023-08-17T00:25:36;101254.40;;;17.70
71205;BMP180;58935;54.498;18.544;2023-08-17T00:28:01;101255.80;;;17.70
71205;BMP180;58935;54.498;18.544;2023-08-17T00:30:27;101263.80;;;17.70
71205;BMP180;58935;54.498;18.544;2023-08-17T00:32:52;101267.80;;;17.70
71205;BMP180;58935;54.498;18.544;2023-08-17T00:35:17;101268.80;;;17.70
71205;BMP180;58935;54.498;18.544;2023-08-17T00:37:43;101266.40;;;17.70
71205;BMP180;58935;54.498;18.544;2023-08-17T00:40:09;101268.00;;;17.70
71205;BMP180;58935;54.498;18.544;2023-08-17T00:42:34;101267.60;;;17.70
71205;BMP180;58935;54.498;18.544;2023-08-17T00:45:00;101263.40;;;17.78
71205;BMP180;58935;54.498;18.544;2023-08-17T00:47:25;101259.20;;;17.80
71205;BMP180;58935;54.498;18.544;2023-08-17T00:49:51;101257.20;;;17.80
71205;BMP180;58935;54.498;18.544;2023-08-17T00:52:16;101259.00;;;17.80
71205;BMP180;58935;54.498;18.544;2023-08-17T00:54:42;101257.60;;;17.74
71205;BMP180;58935;54.498;18.544;2023-08-17T00:57:09;101261.20;;;17.70
71205;BMP180;58935;54.498;18.544;2023-08-17T00:59:35;101257.20;;;17.70
71205;BMP180;58935;54.498;18.544;2023-08-17T01:02:01;101248.20;;;17.68
71205;BMP180;58935;54.498;18.544;2023-08-17T01:04:27;101244.00;;;17.60
71205;BMP180;58935;54.498;18.544;2023-08-17T01:06:52;101241.00;;;17.60
71205;BMP180;58935;54.498;18.544;2023-08-17T01:09:18;101245.80;;;17.50
71205;BMP180;58935;54.498;18.544;2023-08-17T01:12:03;101247.60;;;17.50
71205;BMP180;58935;54.498;18.544;2023-08-17T01:14:37;101245.80;;;17.40
71205;BMP180;58935;54.498;18.544;2023-08-17T01:17:13;101253.20;;;17.40
71205;BMP180;58935;54.498;18.544;2023-08-17T01:19:40;101250.80;;;17.40
71205;BMP180;58935;54.498;18.544;2023-08-17T01:22:11;101249.20;;;17.38
71205;BMP180;58935;54.498;18.544;2023-08-17T01:24:38;101252.20;;;17.30
71205;BMP180;58935;54.498;18.544;2023-08-17T01:27:03;101249.00;;;17.28
71205;BMP180;58935;54.498;18.544;2023-08-17T01:29:28;101242.80;;;17.20
71205;BMP180;58935;54.498;18.544;2023-08-17T01:32:07;101236.60;;;17.20
71205;BMP180;58935;54.498;18.544;2023-08-17T01:34:42;101230.80;;;17.10
71205;BMP180;58935;54.498;18.544;2023-08-17T01:37:11;101226.40;;;17.10
71205;BMP180;58935;54.498;18.544;2023-08-17T01:39:43;101230.40;;;17.10
71205;BMP180;58935;54.498;18.544;2023-08-17T01:42:12;101227.00;;;17.02
71205;BMP180;58935;54.498;18.544;2023-08-17T01:44:39;101226.00;;;17.00
71205;BMP180;58935;54.498;18.544;2023-08-17T01:47:04;101224.20;;;17.00
71205;BMP180;58935;54.498;18.544;2023-08-17T01:49:30;101226.20;;;17.00
71205;BMP180;58935;54.498;18.544;2023-08-17T01:51:55;101226.00;;;17.00
71205;BMP180;58935;54.498;18.544;2023-08-17T01:54:21;101223.00;;;16.98
71205;BMP180;58935;54.498;18.544;2023-08-17T01:56:46;101226.40;;;16.98
71205;BMP180;58935;54.498;18.544;2023-08-17T01:59:12;101222.60;;;16.98
71205;BMP180;58935;54.498;18.544;2023-08-17T02:01:38;101229.40;;;16.98
71205;BMP180;58935;54.498;18.544;2023-08-17T02:04:03;101228.20;;;16.98
71205;BMP180;58935;54.498;18.544;2023-08-17T02:06:28;101229.20;;;17.00
71205;BMP180;58935;54.498;18.544;2023-08-17T02:08:54;101235.20;;;17.00
71205;BMP180;58935;54.498;18.544;2023-08-17T02:11:20;101237.80;;;17.02
71205;BMP180;58935;54.498;18.544;2023-08-17T02:13:46;101236.40;;;17.06
71205;BMP180;58935;54.498;18.544;2023-08-17T02:16:11;101244.60;;;17.10
71205;BMP180;58935;54.498;18.544;2023-08-17T02:18:36;101252.20;;;17.10
71205;BMP180;58935;54.498;18.544;2023-08-17T02:21:02;101255.40;;;17.16
71205;BMP180;58935;54.498;18.544;2023-08-17T02:23:28;101258.40;;;17.20
71205;BMP180;58935;54.498;18.544;2023-08-17T02:25:53;101258.60;;;17.20
71205;BMP180;58935;54.498;18.544;2023-08-17T02:28:18;101257.60;;;17.20
71205;BMP180;58935;54.498;18.544;2023-08-17T02:30:45;101258.80;;;17.20
71205;BMP180;58935;54.498;18.544;2023-08-17T02:33:11;101255.40;;;17.20
71205;BMP180;58935;54.498;18.544;2023-08-17T02:35:36;101252.40;;;17.20
71205;BMP180;58935;54.498;18.544;2023-08-17T02:38:02;101256.80;;;17.20
71205;BMP180;58935;54.498;18.544;2023-08-17T02:40:27;101261.60;;;17.20
71205;BMP180;58935;54.498;18.544;2023-08-17T02:42:52;101267.20;;;17.20
71205;BMP180;58935;54.498;18.544;2023-08-17T02:45:18;101267.80;;;17.14
71205;BMP180;58935;54.498;18.544;2023-08-17T02:47:43;101270.40;;;17.10
71205;BMP180;58935;54.498;18.544;2023-08-17T02:50:09;101269.60;;;17.14
71205;BMP180;58935;54.498;18.544;2023-08-17T02:52:35;101271.60;;;17.20
71205;BMP180;58935;54.498;18.544;2023-08-17T02:55:00;101275.40;;;17.20
71205;BMP180;58935;54.498;18.544;2023-08-17T02:57:25;101276.40;;;17.20
71205;BMP180;58935;54.498;18.544;2023-08-17T02:59:51;101273.00;;;17.20
71205;BMP180;58935;54.498;18.544;2023-08-17T03:02:16;101263.20;;;17.20
71205;BMP180;58935;54.498;18.544;2023-08-17T03:04:41;101256.00;;;17.20
71205;BMP180;58935;54.498;18.544;2023-08-17T03:07:07;101251.20;;;17.18
71205;BMP180;58935;54.498;18.544;2023-08-17T03:09:33;101256.20;;;17.10
71205;BMP180;58935;54.498;18.544;2023-08-17T03:11:58;101256.00;;;17.10
71205;BMP180;58935;54.498;18.544;2023-08-17T03:14:23;101254.60;;;17.10
71205;BMP180;58935;54.498;18.544;2023-08-17T03:16:49;101251.80;;;17.00
71205;BMP180;58935;54.498;18.544;2023-08-17T03:19:15;101258.40;;;17.00
71205;BMP180;58935;54.498;18.544;2023-08-17T03:21:40;101253.80;;;17.00
71205;BMP180;58935;54.498;18.544;2023-08-17T03:24:06;101255.40;;;17.00
71205;BMP180;58935;54.498;18.544;2023-08-17T03:26:32;101255.80;;;17.00
71205;BMP180;58935;54.498;18.544;2023-08-17T03:28:57;101257.80;;;17.00
71205;BMP180;58935;54.498;18.544;2023-08-17T03:31:22;101260.00;;;17.10
71205;BMP180;58935;54.498;18.544;2023-08-17T03:33:48;101261.00;;;17.10
71205;BMP180;58935;54.498;18.544;2023-08-17T03:36:14;101255.60;;;17.10
71205;BMP180;58935;54.498;18.544;2023-08-17T03:38:40;101253.00;;;17.10
71205;BMP180;58935;54.498;18.544;2023-08-17T03:41:06;101247.00;;;17.10
71205;BMP180;58935;54.498;18.544;2023-08-17T03:43:31;101252.80;;;17.10
71205;BMP180;58935;54.498;18.544;2023-08-17T03:45:56;101248.80;;;17.10
71205;BMP180;58935;54.498;18.544;2023-08-17T03:48:22;101249.20;;;17.10
71205;BMP180;58935;54.498;18.544;2023-08-17T03:50:52;101244.80;;;17.10
71205;BMP180;58935;54.498;18.544;2023-08-17T03:53:17;101249.60;;;17.10
71205;BMP180;58935;54.498;18.544;2023-08-17T03:55:49;101251.20;;;17.16
71205;BMP180;58935;54.498;18.544;2023-08-17T03:58:15;101251.40;;;17.20
71205;BMP180;58935;54.498;18.544;2023-08-17T04:00:40;101257.80;;;17.20
71205;BMP180;58935;54.498;18.544;2023-08-17T04:03:06;101249.00;;;17.28
71205;BMP180;58935;54.498;18.544;2023-08-17T04:05:32;101248.40;;;17.30
71205;BMP180;58935;54.498;18.544;2023-08-17T04:08:00;101244.40;;;17.30
71205;BMP180;58935;54.498;18.544;2023-08-17T04:10:28;101244.20;;;17.34
71205;BMP180;58935;54.498;18.544;2023-08-17T04:12:53;101242.40;;;17.40
71205;BMP180;58935;54.498;18.544;2023-08-17T04:15:18;101238.00;;;17.40
71205;BMP180;58935;54.498;18.544;2023-08-17T04:17:44;101236.40;;;17.40
71205;BMP180;58935;54.498;18.544;2023-08-17T04:20:10;101237.00;;;17.48
71205;BMP180;58935;54.498;18.544;2023-08-17T04:22:35;101238.20;;;17.50
71205;BMP180;58935;54.498;18.544;2023-08-17T04:25:00;101237.20;;;17.50
71205;BMP180;58935;54.498;18.544;2023-08-17T04:27:26;101241.40;;;17.50
71205;BMP180;58935;54.498;18.544;2023-08-17T04:29:51;101238.20;;;17.50
71205;BMP180;58935;54.498;18.544;2023-08-17T04:32:16;101243.60;;;17.60
71205;BMP180;58935;54.498;18.544;2023-08-17T04:34:44;101251.20;;;17.60
71205;BMP180;58935;54.498;18.544;2023-08-17T04:37:10;101260.60;;;17.62
71205;BMP180;58935;54.498;18.544;2023-08-17T04:39:35;101260.20;;;17.70
71205;BMP180;58935;54.498;18.544;2023-08-17T04:42:10;101255.20;;;17.70
71205;BMP180;58935;54.498;18.544;2023-08-17T04:44:35;101255.00;;;17.74
71205;BMP180;58935;54.498;18.544;2023-08-17T04:47:01;101255.20;;;17.80
71205;BMP180;58935;54.498;18.544;2023-08-17T04:49:27;101255.60;;;17.80
71205;BMP180;58935;54.498;18.544;2023-08-17T04:51:53;101263.60;;;17.80
71205;BMP180;58935;54.498;18.544;2023-08-17T04:54:18;101277.60;;;17.90
71205;BMP180;58935;54.498;18.544;2023-08-17T04:56:44;101283.40;;;17.90
71205;BMP180;58935;54.498;18.544;2023-08-17T04:59:09;101283.60;;;17.98
71205;BMP180;58935;54.498;18.544;2023-08-17T05:01:35;101299.00;;;18.00
71205;BMP180;58935;54.498;18.544;2023-08-17T05:04:01;101308.80;;;18.08
71205;BMP180;58935;54.498;18.544;2023-08-17T05:06:28;101304.40;;;18.10
71205;BMP180;58935;54.498;18.544;2023-08-17T05:08:54;101310.80;;;18.18
71205;BMP180;58935;54.498;18.544;2023-08-17T05:11:19;101320.60;;;18.20
71205;BMP180;58935;54.498;18.544;2023-08-17T05:13:44;101328.80;;;18.30
71205;BMP180;58935;54.498;18.544;2023-08-17T05:16:10;101334.80;;;18.30
71205;BMP180;58935;54.498;18.544;2023-08-17T05:18:35;101337.60;;;18.40
71205;BMP180;58935;54.498;18.544;2023-08-17T05:21:01;101337.20;;;18.40
71205;BMP180;58935;54.498;18.544;2023-08-17T05:23:26;101336.20;;;18.50
71205;BMP180;58935;54.498;18.544;2023-08-17T05:25:51;101332.80;;;18.60
71205;BMP180;58935;54.498;18.544;2023-08-17T05:28:17;101339.80;;;18.60
71205;BMP180;58935;54.498;18.544;2023-08-17T05:30:43;101340.00;;;18.68
71205;BMP180;58935;54.498;18.544;2023-08-17T05:33:08;101338.40;;;18.70
71205;BMP180;58935;54.498;18.544;2023-08-17T05:35:34;101340.60;;;18.78
71205;BMP180;58935;54.498;18.544;2023-08-17T05:37:59;101329.40;;;18.80
71205;BMP180;58935;54.498;18.544;2023-08-17T05:40:25;101330.60;;;18.90
71205;BMP180;58935;54.498;18.544;2023-08-17T05:42:50;101327.80;;;18.90
71205;BMP180;58935;54.498;18.544;2023-08-17T05:45:16;101326.20;;;18.90
71205;BMP180;58935;54.498;18.544;2023-08-17T05:47:41;101325.60;;;18.90
71205;BMP180;58935;54.498;18.544;2023-08-17T05:50:07;101322.40;;;18.94
71205;BMP180;58935;54.498;18.544;2023-08-17T05:52:32;101309.80;;;19.00
71205;BMP180;58935;54.498;18.544;2023-08-17T05:54:58;101297.80;;;18.90
71205;BMP180;58935;54.498;18.544;2023-08-17T05:57:23;101288.80;;;18.88
71205;BMP180;58935;54.498;18.544;2023-08-17T05:59:48;101276.00;;;18.80
71205;BMP180;58935;54.498;18.544;2023-08-17T06:02:14;101264.20;;;18.68
71205;BMP180;58935;54.498;18.544;2023-08-17T06:04:39;101264.00;;;18.60
71205;BMP180;58935;54.498;18.544;2023-08-17T06:07:06;101258.60;;;18.50
71205;BMP180;58935;54.498;18.544;2023-08-17T06:09:31;101246.00;;;18.40
71205;BMP180;58935;54.498;18.544;2023-08-17T06:11:56;101228.40;;;18.30
71205;BMP180;58935;54.498;18.544;2023-08-17T06:14:22;101231.80;;;18.20
71205;BMP180;58935;54.498;18.544;2023-08-17T06:16:47;101225.80;;;18.10
71205;BMP180;58935;54.498;18.544;2023-08-17T06:19:13;101222.60;;;18.00
71205;BMP180;58935;54.498;18.544;2023-08-17T06:21:38;101221.20;;;17.92
71205;BMP180;58935;54.498;18.544;2023-08-17T06:24:04;101228.80;;;17.90
71205;BMP180;58935;54.498;18.544;2023-08-17T06:26:30;101229.20;;;17.80
71205;BMP180;58935;54.498;18.544;2023-08-17T06:28:55;101227.80;;;17.80
71205;BMP180;58935;54.498;18.544;2023-08-17T06:31:20;101218.00;;;17.80
71205;BMP180;58935;54.498;18.544;2023-08-17T06:33:46;101209.00;;;17.72
71205;BMP180;58935;54.498;18.544;2023-08-17T06:36:11;101216.00;;;17.70
71205;BMP180;58935;54.498;18.544;2023-08-17T06:38:41;101229.40;;;17.70
71205;BMP180;58935;54.498;18.544;2023-08-17T06:41:07;101237.40;;;17.70
71205;BMP180;58935;54.498;18.544;2023-08-17T06:43:33;101239.40;;;17.80
71205;BMP180;58935;54.498;18.544;2023-08-17T06:45:58;101241.00;;;17.80
71205;BMP180;58935;54.498;18.544;2023-08-17T06:48:25;101243.20;;;17.80
71205;BMP180;58935;54.498;18.544;2023-08-17T06:50:50;101260.80;;;17.86
71205;BMP180;58935;54.498;18.544;2023-08-17T06:53:16;101280.80;;;17.90
71205;BMP180;58935;54.498;18.544;2023-08-17T06:55:41;101288.20;;;18.00
71205;BMP180;58935;54.498;18.544;2023-08-17T06:58:06;101295.40;;;18.10
71205;BMP180;58935;54.498;18.544;2023-08-17T07:00:32;101293.80;;;18.20
71205;BMP180;58935;54.498;18.544;2023-08-17T07:02:57;101302.60;;;18.20
71205;BMP180;58935;54.498;18.544;2023-08-17T07:05:27;101304.40;;;18.30
71205;BMP180;58935;54.498;18.544;2023-08-17T07:07:53;101309.40;;;18.32
71205;BMP180;58935;54.498;18.544;2023-08-17T07:10:19;101304.40;;;18.40
71205;BMP180;58935;54.498;18.544;2023-08-17T07:12:44;101299.00;;;18.48
71205;BMP180;58935;54.498;18.544;2023-08-17T07:15:10;101300.20;;;18.60
71205;BMP180;58935;54.498;18.544;2023-08-17T07:17:36;101300.80;;;18.60
71205;BMP180;58935;54.498;18.544;2023-08-17T07:20:03;101308.40;;;18.70
71205;BMP180;58935;54.498;18.544;2023-08-17T07:22:29;101310.00;;;18.80
71205;BMP180;58935;54.498;18.544;2023-08-17T07:24:55;101311.00;;;18.80
71205;BMP180;58935;54.498;18.544;2023-08-17T07:27:21;101310.60;;;18.90
71205;BMP180;58935;54.498;18.544;2023-08-17T07:29:47;101312.60;;;19.00
71205;BMP180;58935;54.498;18.544;2023-08-17T07:35:53;101317.80;;;19.10
71205;BMP180;58935;54.498;18.544;2023-08-17T07:38:20;101317.80;;;19.10
71205;BMP180;58935;54.498;18.544;2023-08-17T07:40:46;101324.80;;;19.20
71205;BMP180;58935;54.498;18.544;2023-08-17T07:43:11;101331.60;;;19.20
71205;BMP180;58935;54.498;18.544;2023-08-17T07:45:36;101326.80;;;19.20
71205;BMP180;58935;54.498;18.544;2023-08-17T07:48:02;101338.60;;;19.20
71205;BMP180;58935;54.498;18.544;2023-08-17T07:50:27;101337.40;;;19.20
71205;BMP180;58935;54.498;18.544;2023-08-17T07:52:53;101338.00;;;19.30
71205;BMP180;58935;54.498;18.544;2023-08-17T07:55:18;101332.20;;;19.30
71205;BMP180;58935;54.498;18.544;2023-08-17T07:57:43;101333.00;;;19.40
71205;BMP180;58935;54.498;18.544;2023-08-17T08:00:09;101328.20;;;19.40
71205;BMP180;58935;54.498;18.544;2023-08-17T08:02:35;101329.00;;;19.40
71205;BMP180;58935;54.498;18.544;2023-08-17T08:05:00;101335.00;;;19.40
71205;BMP180;58935;54.498;18.544;2023-08-17T08:07:25;101336.00;;;19.50
71205;BMP180;58935;54.498;18.544;2023-08-17T08:09:51;101332.60;;;19.52
71205;BMP180;58935;54.498;18.544;2023-08-17T08:12:16;101330.40;;;19.60
71205;BMP180;58935;54.498;18.544;2023-08-17T08:14:41;101327.20;;;19.68
71205;BMP180;58935;54.498;18.544;2023-08-17T08:17:07;101328.00;;;19.76
71205;BMP180;58935;54.498;18.544;2023-08-17T08:19:32;101331.80;;;19.86
71205;BMP180;58935;54.498;18.544;2023-08-17T08:21:58;101336.00;;;19.96
71205;BMP180;58935;54.498;18.544;2023-08-17T08:24:23;101333.80;;;20.10
71205;BMP180;58935;54.498;18.544;2023-08-17T08:26:49;101335.00;;;20.20
71205;BMP180;58935;54.498;18.544;2023-08-17T08:29:16;101338.00;;;20.20
71205;BMP180;58935;54.498;18.544;2023-08-17T08:31:41;101331.60;;;20.30
71205;BMP180;58935;54.498;18.544;2023-08-17T08:34:06;101318.40;;;20.34
71205;BMP180;58935;54.498;18.544;2023-08-17T08:36:32;101323.80;;;20.40
71205;BMP180;58935;54.498;18.544;2023-08-17T08:38:57;101324.80;;;20.50
71205;BMP180;58935;54.498;18.544;2023-08-17T08:41:26;101317.80;;;20.54
71205;BMP180;58935;54.498;18.544;2023-08-17T08:43:53;101317.40;;;20.60
71205;BMP180;58935;54.498;18.544;2023-08-17T08:46:20;101319.40;;;20.70
71205;BMP180;58935;54.498;18.544;2023-08-17T08:48:50;101309.80;;;20.70
71205;BMP180;58935;54.498;18.544;2023-08-17T08:51:25;101307.60;;;20.70
71205;BMP180;58935;54.498;18.544;2023-08-17T08:54:01;101300.60;;;20.80
71205;BMP180;58935;54.498;18.544;2023-08-17T08:56:32;101303.20;;;20.80
71205;BMP180;58935;54.498;18.544;2023-08-17T08:59:02;101300.60;;;20.70
71205;BMP180;58935;54.498;18.544;2023-08-17T09:01:30;101301.80;;;20.70
71205;BMP180;58935;54.498;18.544;2023-08-17T09:03:58;101303.20;;;20.70
71205;BMP180;58935;54.498;18.544;2023-08-17T09:06:26;101306.00;;;20.70
71205;BMP180;58935;54.498;18.544;2023-08-17T09:08:52;101295.80;;;20.70
71205;BMP180;58935;54.498;18.544;2023-08-17T09:11:18;101291.20;;;20.70
71205;BMP180;58935;54.498;18.544;2023-08-17T09:13:44;101291.40;;;20.80
71205;BMP180;58935;54.498;18.544;2023-08-17T09:16:09;101291.40;;;20.80
71205;BMP180;58935;54.498;18.544;2023-08-17T09:18:35;101297.20;;;20.80
71205;BMP180;58935;54.498;18.544;2023-08-17T09:21:01;101298.00;;;20.70
71205;BMP180;58935;54.498;18.544;2023-08-17T09:23:26;101300.00;;;20.70
71205;BMP180;58935;54.498;18.544;2023-08-17T09:25:52;101300.40;;;20.62
71205;BMP180;58935;54.498;18.544;2023-08-17T09:28:23;101304.40;;;20.60
71205;BMP180;58935;54.498;18.544;2023-08-17T09:30:54;101302.60;;;20.60
71205;BMP180;58935;54.498;18.544;2023-08-17T09:33:26;101307.00;;;20.60
71205;BMP180;58935;54.498;18.544;2023-08-17T09:35:54;101312.00;;;20.60
71205;BMP180;58935;54.498;18.544;2023-08-17T09:38:20;101307.40;;;20.60
71205;BMP180;58935;54.498;18.544;2023-08-17T09:40:47;101304.80;;;20.60
71205;BMP180;58935;54.498;18.544;2023-08-17T09:43:17;101302.40;;;20.60
71205;BMP180;58935;54.498;18.544;2023-08-17T09:45:44;101302.40;;;20.60
71205;BMP180;58935;54.498;18.544;2023-08-17T09:48:15;101304.20;;;20.60
71205;BMP180;58935;54.498;18.544;2023-08-17T09:50:43;101305.60;;;20.60
71205;BMP180;58935;54.498;18.544;2023-08-17T09:53:14;101308.40;;;20.58
71205;BMP180;58935;54.498;18.544;2023-08-17T09:55:42;101309.40;;;20.50
71205;BMP180;58935;54.498;18.544;2023-08-17T09:58:08;101312.20;;;20.60
71205;BMP180;58935;54.498;18.544;2023-08-17T10:00:34;101309.40;;;20.60
71205;BMP180;58935;54.498;18.544;2023-08-17T10:03:03;101313.40;;;20.70
71205;BMP180;58935;54.498;18.544;2023-08-17T10:05:34;101312.60;;;20.76
71205;BMP180;58935;54.498;18.544;2023-08-17T10:08:02;101313.80;;;20.80
71205;BMP180;58935;54.498;18.544;2023-08-17T10:10:32;101311.60;;;20.80
71205;BMP180;58935;54.498;18.544;2023-08-17T10:13:09;101310.20;;;20.80
71205;BMP180;58935;54.498;18.544;2023-08-17T10:15:54;101306.20;;;20.80
71205;BMP180;58935;54.498;18.544;2023-08-17T10:21:42;101304.40;;;20.70
71205;BMP180;58935;54.498;18.544;2023-08-17T10:24:09;101310.60;;;20.70
71205;BMP180;58935;54.498;18.544;2023-08-17T10:26:34;101307.20;;;20.70
71205;BMP180;58935;54.498;18.544;2023-08-17T10:29:02;101306.80;;;20.70
71205;BMP180;58935;54.498;18.544;2023-08-17T10:31:29;101305.40;;;20.70
71205;BMP180;58935;54.498;18.544;2023-08-17T10:33:56;101303.40;;;20.70
71205;BMP180;58935;54.498;18.544;2023-08-17T10:36:23;101305.20;;;20.70
71205;BMP180;58935;54.498;18.544;2023-08-17T10:39:21;101311.00;;;20.70
71205;BMP180;58935;54.498;18.544;2023-08-17T10:41:49;101314.60;;;20.72
71205;BMP180;58935;54.498;18.544;2023-08-17T10:44:18;101320.00;;;20.70
71205;BMP180;58935;54.498;18.544;2023-08-17T10:46:44;101321.40;;;20.70
71205;BMP180;58935;54.498;18.544;2023-08-17T10:49:26;101316.00;;;20.72
71205;BMP180;58935;54.498;18.544;2023-08-17T10:52:05;101308.20;;;20.80
71205;BMP180;58935;54.498;18.544;2023-08-17T10:54:39;101300.60;;;20.92
71205;BMP180;58935;54.498;18.544;2023-08-17T10:57:35;101299.40;;;21.00
71205;BMP180;58935;54.498;18.544;2023-08-17T11:00:25;101299.40;;;21.10
71205;BMP180;58935;54.498;18.544;2023-08-17T11:03:01;101301.00;;;21.20
71205;BMP180;58935;54.498;18.544;2023-08-17T11:05:51;101305.20;;;21.20
71205;BMP180;58935;54.498;18.544;2023-08-17T11:08:31;101306.00;;;21.32
71205;BMP180;58935;54.498;18.544;2023-08-17T11:11:15;101303.00;;;21.40
71205;BMP180;58935;54.498;18.544;2023-08-17T11:13:46;101300.80;;;21.50
71205;BMP180;58935;54.498;18.544;2023-08-17T11:16:15;101295.80;;;21.58
71205;BMP180;58935;54.498;18.544;2023-08-17T11:18:41;101294.20;;;21.60
71205;BMP180;58935;54.498;18.544;2023-08-17T11:21:07;101289.20;;;21.70
71205;BMP180;58935;54.498;18.544;2023-08-17T11:23:37;101290.00;;;21.70
71205;BMP180;58935;54.498;18.544;2023-08-17T11:26:03;101286.20;;;21.68
71205;BMP180;58935;54.498;18.544;2023-08-17T11:28:34;101285.60;;;21.60
71205;BMP180;58935;54.498;18.544;2023-08-17T11:31:05;101284.80;;;21.50
71205;BMP180;58935;54.498;18.544;2023-08-17T11:33:31;101281.80;;;21.46
71205;BMP180;58935;54.498;18.544;2023-08-17T11:36:03;101278.40;;;21.40
71205;BMP180;58935;54.498;18.544;2023-08-17T11:38:42;101283.80;;;21.40
71205;BMP180;58935;54.498;18.544;2023-08-17T11:41:09;101277.40;;;21.40
71205;BMP180;58935;54.498;18.544;2023-08-17T11:43:36;101274.80;;;21.40
71205;BMP180;58935;54.498;18.544;2023-08-17T11:46:02;101268.00;;;21.40
71205;BMP180;58935;54.498;18.544;2023-08-17T11:48:29;101264.40;;;21.40
71205;BMP180;58935;54.498;18.544;2023-08-17T11:50:55;101271.40;;;21.42
71205;BMP180;58935;54.498;18.544;2023-08-17T11:53:21;101277.60;;;21.30
71205;BMP180;58935;54.498;18.544;2023-08-17T11:55:47;101288.60;;;21.30
71205;BMP180;58935;54.498;18.544;2023-08-17T11:58:12;101278.80;;;21.24
71205;BMP180;58935;54.498;18.544;2023-08-17T12:00:43;101275.20;;;21.28
71205;BMP180;58935;54.498;18.544;2023-08-17T12:03:14;101276.40;;;21.30
71205;BMP180;58935;54.498;18.544;2023-08-17T12:05:42;101278.00;;;21.30
71205;BMP180;58935;54.498;18.544;2023-08-17T12:08:13;101280.60;;;21.40
71205;BMP180;58935;54.498;18.544;2023-08-17T12:10:40;101281.60;;;21.38
71205;BMP180;58935;54.498;18.544;2023-08-17T12:13:05;101277.20;;;21.32
71205;BMP180;58935;54.498;18.544;2023-08-17T12:15:33;101274.20;;;21.30
71205;BMP180;58935;54.498;18.544;2023-08-17T12:18:03;101267.60;;;21.30
71205;BMP180;58935;54.498;18.544;2023-08-17T12:20:29;101276.00;;;21.30
71205;BMP180;58935;54.498;18.544;2023-08-17T12:22:58;101272.40;;;21.10
71205;BMP180;58935;54.498;18.544;2023-08-17T12:25:26;101280.20;;;21.10
71205;BMP180;58935;54.498;18.544;2023-08-17T12:27:51;101279.60;;;21.00
71205;BMP180;58935;54.498;18.544;2023-08-17T12:30:30;101280.80;;;21.00
71205;BMP180;58935;54.498;18.544;2023-08-17T12:32:58;101279.40;;;20.98
71205;BMP180;58935;54.498;18.544;2023-08-17T12:35:23;101274.20;;;21.00
71205;BMP180;58935;54.498;18.544;2023-08-17T12:37:51;101275.40;;;21.00
71205;BMP180;58935;54.498;18.544;2023-08-17T12:40:16;101273.20;;;21.00
71205;BMP180;58935;54.498;18.544;2023-08-17T12:42:42;101272.40;;;21.10
71205;BMP180;58935;54.498;18.544;2023-08-17T12:45:07;101275.80;;;21.10
71205;BMP180;58935;54.498;18.544;2023-08-17T12:47:33;101268.80;;;21.10
71205;BMP180;58935;54.498;18.544;2023-08-17T12:49:58;101258.40;;;21.10
71205;BMP180;58935;54.498;18.544;2023-08-17T12:52:27;101259.60;;;21.20
71205;BMP180;58935;54.498;18.544;2023-08-17T12:54:53;101263.20;;;21.30
71205;BMP180;58935;54.498;18.544;2023-08-17T12:57:18;101262.40;;;21.32
71205;BMP180;58935;54.498;18.544;2023-08-17T12:59:44;101269.20;;;21.30
71205;BMP180;58935;54.498;18.544;2023-08-17T13:02:09;101277.00;;;21.20
71205;BMP180;58935;54.498;18.544;2023-08-17T13:04:34;101270.40;;;21.10
71205;BMP180;58935;54.498;18.544;2023-08-17T13:07:00;101273.00;;;21.10
71205;BMP180;58935;54.498;18.544;2023-08-17T13:09:25;101273.40;;;21.00
71205;BMP180;58935;54.498;18.544;2023-08-17T13:11:50;101272.60;;;20.90
71205;BMP180;58935;54.498;18.544;2023-08-17T13:14:15;101275.60;;;20.84
71205;BMP180;58935;54.498;18.544;2023-08-17T13:16:42;101277.00;;;20.80
71205;BMP180;58935;54.498;18.544;2023-08-17T13:19:07;101279.20;;;20.68
71205;BMP180;58935;54.498;18.544;2023-08-17T13:21:32;101276.00;;;20.50
71205;BMP180;58935;54.498;18.544;2023-08-17T13:23:58;101276.00;;;20.50
71205;BMP180;58935;54.498;18.544;2023-08-17T13:26:23;101282.60;;;20.42
71205;BMP180;58935;54.498;18.544;2023-08-17T13:28:49;101281.60;;;20.40
71205;BMP180;58935;54.498;18.544;2023-08-17T13:31:14;101278.20;;;20.30
71205;BMP180;58935;54.498;18.544;2023-08-17T13:33:39;101275.80;;;20.30
71205;BMP180;58935;54.498;18.544;2023-08-17T13:36:07;101275.00;;;20.40
71205;BMP180;58935;54.498;18.544;2023-08-17T13:38:33;101276.40;;;20.40
71205;BMP180;58935;54.498;18.544;2023-08-17T13:40:58;101274.20;;;20.50
71205;BMP180;58935;54.498;18.544;2023-08-17T13:43:23;101278.60;;;20.50
71205;BMP180;58935;54.498;18.544;2023-08-17T13:45:49;101273.40;;;20.54
71205;BMP180;58935;54.498;18.544;2023-08-17T13:48:15;101275.80;;;20.60
71205;BMP180;58935;54.498;18.544;2023-08-17T13:50:40;101270.40;;;20.60